createdAt,value
2023-02-11T00:00:42.021Z,22.35
2023-02-11T00:03:10.777Z,22.20
2023-02-11T00:05:38.836Z,22.45
2023-02-11T00:08:07.031Z,20.98
2023-02-11T00:10:36.690Z,24.73
2023-02-11T00:13:04.778Z,19.98
2023-02-11T00:15:32.821Z,16.75
2023-02-11T00:18:00.896Z,17.85
2023-02-11T00:20:28.920Z,17.67
2023-02-11T00:22:57.155Z,19.45
2023-02-11T00:25:25.214Z,18.67
2023-02-11T00:27:54.670Z,18.42
2023-02-11T00:30:22.759Z,17.52
2023-02-11T00:32:53.299Z,19.20
2023-02-11T00:35:21.319Z,18.08
2023-02-11T00:37:49.440Z,25.40
2023-02-11T00:40:17.644Z,16.60
2023-02-11T00:42:45.661Z,19.67
2023-02-11T00:45:15.180Z,19.55
2023-02-11T00:47:43.308Z,18.42
2023-02-11T00:50:11.558Z,18.58
2023-02-11T00:52:39.627Z,19.35
2023-02-11T00:55:08.942Z,21.40
2023-02-11T00:57:37.198Z,18.25
2023-02-11T01:00:06.752Z,17.13
2023-02-11T01:02:36.192Z,19.42
2023-02-11T01:05:04.296Z,19.70
2023-02-11T01:07:32.462Z,19.33
2023-02-11T01:10:02.821Z,20.73
2023-02-11T01:12:31.032Z,24.50
2023-02-11T01:14:59.095Z,21.27
2023-02-11T01:17:27.436Z,17.88
2023-02-11T01:19:56.825Z,17.13
2023-02-11T01:22:24.949Z,15.73
2023-02-11T01:24:52.991Z,18.10
2023-02-11T01:27:21.080Z,19.90
2023-02-11T01:29:49.175Z,18.45
2023-02-11T01:32:17.461Z,16.40
2023-02-11T01:34:45.505Z,28.27
2023-02-11T01:37:15.030Z,18.65
2023-02-11T01:39:43.186Z,18.05
2023-02-11T01:42:16.741Z,22.52
2023-02-11T01:44:45.180Z,19.55
2023-02-11T01:47:13.229Z,18.70
2023-02-11T01:49:45.694Z,18.00
2023-02-11T01:52:19.689Z,18.38
2023-02-11T01:55:09.388Z,21.30
2023-02-11T01:57:40.953Z,18.27
2023-02-11T02:00:14.043Z,17.70
2023-02-11T02:02:50.037Z,20.63
2023-02-11T02:05:25.575Z,15.63
2023-02-11T02:08:01.899Z,20.88
2023-02-11T02:10:30.271Z,18.40
2023-02-11T02:12:58.721Z,18.88
2023-02-11T02:15:30.628Z,22.77
2023-02-11T02:18:21.283Z,13.57
2023-02-11T02:21:41.877Z,17.83
2023-02-11T02:24:51.284Z,21.05
2023-02-11T02:27:37.224Z,16.45
2023-02-11T02:30:36.910Z,21.60
2023-02-11T02:33:23.599Z,14.02
2023-02-11T02:36:01.437Z,20.55
2023-02-11T02:38:35.230Z,16.50
2023-02-11T02:41:08.002Z,18.33
2023-02-11T02:43:39.070Z,21.98
2023-02-11T02:46:16.474Z,23.15
2023-02-11T02:48:46.283Z,23.50
2023-02-11T02:51:39.021Z,19.77
2023-02-11T02:54:28.395Z,19.08
2023-02-11T02:57:05.288Z,18.38
2023-02-11T02:59:44.670Z,18.67
2023-02-11T03:02:19.446Z,19.75
2023-02-11T03:04:53.596Z,14.55
2023-02-11T03:07:29.513Z,18.23
2023-02-11T03:10:04.795Z,21.95
2023-02-11T03:12:34.896Z,21.88
2023-02-11T03:15:05.936Z,16.95
2023-02-11T03:17:36.155Z,17.85
2023-02-11T03:20:07.448Z,21.00
2023-02-11T03:22:41.069Z,19.80
2023-02-11T03:25:10.435Z,17.35
2023-02-11T03:27:44.849Z,20.35
2023-02-11T03:30:15.687Z,20.65
2023-02-11T03:32:51.550Z,16.98
2023-02-11T03:35:25.325Z,26.05
2023-02-11T03:37:58.274Z,20.70
2023-02-11T03:40:29.026Z,20.88
2023-02-11T03:43:01.116Z,18.67
2023-02-11T03:45:30.258Z,20.67
2023-02-11T03:48:06.751Z,21.38
2023-02-11T03:50:38.472Z,20.80
2023-02-11T03:53:07.344Z,19.40
2023-02-11T03:55:39.901Z,18.48
2023-02-11T04:00:39.608Z,17.35
2023-02-11T04:03:08.407Z,19.60
2023-02-11T04:05:38.477Z,19.85
2023-02-11T04:08:07.484Z,22.77
2023-02-11T04:10:38.577Z,16.80
2023-02-11T04:13:06.860Z,20.63
2023-02-11T04:15:38.221Z,22.00
2023-02-11T04:18:06.376Z,22.00
2023-02-11T04:20:34.515Z,19.23
2023-02-11T04:23:04.250Z,21.67
2023-02-11T04:25:32.541Z,25.10
2023-02-11T04:28:00.571Z,25.35
2023-02-11T04:30:28.967Z,22.33
2023-02-11T04:33:00.159Z,17.85
2023-02-11T04:35:28.276Z,22.02
2023-02-11T04:37:56.344Z,28.55
2023-02-11T04:40:25.896Z,19.05
2023-02-11T04:42:54.014Z,19.15
2023-02-11T04:45:22.176Z,20.20
2023-02-11T04:47:50.156Z,23.92
2023-02-11T04:50:18.845Z,20.52
2023-02-11T04:52:46.992Z,19.73
2023-02-11T04:55:15.288Z,22.88
2023-02-11T04:57:44.765Z,23.17
2023-02-11T05:00:16.709Z,19.63
2023-02-11T05:02:44.925Z,23.80
2023-02-11T05:05:12.961Z,22.77
2023-02-11T05:07:41.164Z,19.35
2023-02-11T05:10:09.589Z,27.88
2023-02-11T05:12:37.628Z,20.95
2023-02-11T05:15:07.900Z,29.92
2023-02-11T05:17:35.974Z,21.05
2023-02-11T05:20:04.109Z,23.58
2023-02-11T05:22:32.142Z,26.90
2023-02-11T05:25:00.184Z,24.83
2023-02-11T05:27:28.286Z,22.73
2023-02-11T05:29:56.320Z,22.58
2023-02-11T05:32:25.854Z,21.58
2023-02-11T05:34:53.891Z,26.58
2023-02-11T05:37:21.997Z,26.75
2023-02-11T05:39:50.132Z,26.70
2023-02-11T05:42:18.251Z,22.30
2023-02-11T05:44:50.706Z,24.30
2023-02-11T05:47:18.948Z,26.40
2023-02-11T05:49:48.439Z,29.27
2023-02-11T05:52:16.642Z,25.17
2023-02-11T05:54:44.665Z,24.45
2023-02-11T05:57:12.893Z,26.25
2023-02-11T05:59:41.029Z,27.40
2023-02-11T06:02:09.840Z,29.48
2023-02-11T06:04:38.632Z,29.35
2023-02-11T06:07:08.005Z,29.73
2023-02-11T06:09:36.118Z,24.25
2023-02-11T06:12:04.226Z,29.38
2023-02-11T06:14:34.333Z,33.03
2023-02-11T06:17:02.747Z,27.92
2023-02-11T06:19:31.225Z,29.08
2023-02-11T06:21:59.470Z,32.40
2023-02-11T06:24:54.600Z,27.88
2023-02-11T06:27:19.574Z,28.50
2023-02-11T06:29:47.918Z,28.27
2023-02-11T06:32:37.012Z,29.48
2023-02-11T06:35:04.155Z,34.83
2023-02-11T06:37:32.210Z,27.58
2023-02-11T06:40:01.859Z,28.08
2023-02-11T06:42:29.888Z,32.28
2023-02-11T06:44:57.922Z,32.40
2023-02-11T06:47:26.454Z,35.38
2023-02-11T06:49:54.497Z,34.88
2023-02-11T06:52:22.563Z,40.17
2023-02-11T06:54:50.557Z,35.63
2023-02-11T06:57:20.012Z,34.17
2023-02-11T06:59:48.303Z,33.50
2023-02-11T07:02:18.426Z,38.63
2023-02-11T07:04:50.812Z,35.45
2023-02-11T07:07:18.827Z,33.33
2023-02-11T07:09:46.842Z,34.08
2023-02-11T07:12:14.883Z,38.67
2023-02-11T07:14:44.421Z,44.08
2023-02-11T07:17:12.539Z,37.60
2023-02-11T07:19:40.779Z,37.03
2023-02-11T07:22:08.844Z,39.10
2023-02-11T07:24:36.880Z,40.47
2023-02-11T07:27:05.000Z,42.47
2023-02-11T07:29:33.253Z,35.83
2023-02-11T07:32:02.935Z,37.33
2023-02-11T07:34:31.050Z,40.55
2023-02-11T07:36:59.149Z,38.85
2023-02-11T07:39:30.900Z,47.83
2023-02-11T07:41:58.950Z,42.47
2023-02-11T07:44:27.074Z,47.05
2023-02-11T07:46:55.141Z,42.70
2023-02-11T07:49:24.562Z,44.15
2023-02-11T07:51:52.798Z,39.55
2023-02-11T07:54:20.811Z,47.90
2023-02-11T07:56:48.969Z,42.88
2023-02-11T07:59:17.157Z,44.47
2023-02-11T08:01:45.628Z,48.58
2023-02-11T08:04:13.924Z,45.00
2023-02-11T08:06:44.561Z,46.33
2023-02-11T08:09:16.360Z,44.05
2023-02-11T08:11:45.519Z,46.87
2023-02-11T08:14:16.263Z,48.92
2023-02-11T08:16:44.469Z,46.25
2023-02-11T08:19:15.474Z,43.83
2023-02-11T08:22:02.714Z,49.92
2023-02-11T08:24:32.385Z,49.95
2023-02-11T08:27:00.464Z,47.53
2023-02-11T08:29:28.513Z,47.88
2023-02-11T08:31:56.612Z,51.83
2023-02-11T08:34:24.677Z,45.50
2023-02-11T08:36:54.149Z,43.63
2023-02-11T08:39:24.700Z,53.67
2023-02-11T08:41:56.565Z,44.95
2023-02-11T08:44:25.481Z,54.10
2023-02-11T08:46:53.849Z,50.83
2023-02-11T08:49:24.967Z,44.97
2023-02-11T08:51:56.266Z,50.80
2023-02-11T08:54:24.317Z,44.08
2023-02-11T08:56:52.912Z,50.15
2023-02-11T08:59:21.110Z,49.55
2023-02-11T09:01:49.591Z,46.22
2023-02-11T09:04:17.870Z,48.03
2023-02-11T09:06:46.465Z,48.80
2023-02-11T09:09:17.457Z,49.00
2023-02-11T09:11:46.290Z,47.17
2023-02-11T09:14:20.209Z,53.47
2023-02-11T09:16:49.306Z,48.47
2023-02-11T09:19:17.575Z,46.67
2023-02-11T09:21:45.669Z,51.00
2023-02-11T09:24:15.276Z,52.80
2023-02-11T09:26:44.548Z,58.72
2023-02-11T09:29:12.661Z,51.38
2023-02-11T09:31:40.903Z,46.92
2023-02-11T09:34:09.570Z,49.97
2023-02-11T09:36:39.679Z,56.10
2023-02-11T09:39:10.432Z,47.28
2023-02-11T09:42:05.709Z,49.38
2023-02-11T09:44:35.578Z,50.20
2023-02-11T09:47:06.220Z,46.22
2023-02-11T09:49:40.384Z,49.58
2023-02-11T09:52:26.459Z,51.55
2023-02-11T09:54:57.865Z,51.30
2023-02-11T09:57:33.115Z,54.25
2023-02-11T10:00:02.401Z,48.22
2023-02-11T10:02:39.912Z,48.70
2023-02-11T10:05:29.112Z,50.97
2023-02-11T10:08:04.003Z,52.88
2023-02-11T10:10:44.678Z,45.58
2023-02-11T10:13:33.659Z,46.47
2023-02-11T10:16:11.159Z,52.63
2023-02-11T10:18:54.747Z,52.65
2023-02-11T10:21:33.865Z,47.53
2023-02-11T10:24:05.530Z,48.30
2023-02-11T10:26:37.240Z,47.40
2023-02-11T10:29:32.270Z,43.20
2023-02-11T10:32:02.450Z,50.75
2023-02-11T10:34:30.539Z,45.50
2023-02-11T10:37:00.870Z,45.90
2023-02-11T10:39:29.356Z,46.63
2023-02-11T10:42:01.649Z,44.50
2023-02-11T10:44:33.923Z,43.78
2023-02-11T10:47:05.553Z,46.22
2023-02-11T10:49:39.469Z,40.45
2023-02-11T10:52:20.542Z,45.80
2023-02-11T10:55:01.042Z,46.00
2023-02-11T10:57:34.105Z,47.35
2023-02-11T11:00:09.332Z,44.08
2023-02-11T11:02:44.138Z,37.47
2023-02-11T11:05:18.726Z,41.50
2023-02-11T11:07:54.903Z,40.95
2023-02-11T11:10:32.835Z,39.33
2023-02-11T11:13:00.978Z,39.03
2023-02-11T11:15:32.550Z,38.15
2023-02-11T11:18:22.066Z,41.20
2023-02-11T11:20:59.225Z,35.58
2023-02-11T11:23:29.418Z,38.63
2023-02-11T11:26:05.664Z,38.42
2023-02-11T11:28:40.409Z,43.03
2023-02-11T11:31:19.017Z,39.05
2023-02-11T11:33:48.550Z,35.22
2023-02-11T11:36:21.050Z,38.28
2023-02-11T11:38:53.147Z,36.70
2023-02-11T11:41:27.054Z,34.75
2023-02-11T11:44:03.824Z,33.75
2023-02-11T11:46:38.187Z,34.78
2023-02-11T11:49:20.244Z,30.58
2023-02-11T11:51:57.821Z,32.97
2023-02-11T11:54:26.803Z,28.77
2023-02-11T11:57:00.118Z,33.28
2023-02-11T11:59:29.722Z,30.55
2023-02-11T12:02:19.641Z,28.67
2023-02-11T12:05:02.160Z,30.88
2023-02-11T12:07:51.354Z,26.85
2023-02-11T12:10:44.094Z,27.00
2023-02-11T12:13:25.240Z,29.48
2023-02-11T12:16:04.984Z,28.20
2023-02-11T12:18:52.283Z,27.48
2023-02-11T12:21:37.419Z,24.98
2023-02-11T12:24:19.925Z,26.10
2023-02-11T12:26:54.456Z,24.38
2023-02-11T12:29:33.083Z,23.95
2023-02-11T12:32:15.461Z,26.73
2023-02-11T12:35:09.046Z,22.80
2023-02-11T12:37:51.014Z,24.23
2023-02-11T12:40:25.263Z,23.42
2023-02-11T12:43:16.899Z,21.27
2023-02-11T12:46:01.492Z,19.38
2023-02-11T12:48:46.626Z,19.08
2023-02-11T12:51:27.974Z,21.90
2023-02-11T12:54:15.277Z,22.33
2023-02-11T12:56:51.414Z,21.40
2023-02-11T12:59:34.122Z,22.40
2023-02-11T13:02:07.862Z,22.80
2023-02-11T13:04:41.543Z,20.50
2023-02-11T13:07:18.592Z,19.42
2023-02-11T13:09:52.426Z,21.25
2023-02-11T13:12:37.459Z,19.35
2023-02-11T13:15:09.109Z,18.90
2023-02-11T13:17:48.921Z,18.88
2023-02-11T13:20:33.904Z,19.17
2023-02-11T13:23:12.312Z,21.55
2023-02-11T13:25:45.670Z,19.15
2023-02-11T13:28:27.000Z,18.25
2023-02-11T13:31:02.790Z,17.95
2023-02-11T13:33:37.126Z,22.77
2023-02-11T13:36:17.784Z,18.65
2023-02-11T13:39:05.904Z,20.25
2023-02-11T13:41:38.165Z,18.88
2023-02-11T13:44:23.672Z,16.65
2023-02-11T13:46:56.017Z,16.23
2023-02-11T13:49:29.070Z,15.48
2023-02-11T13:51:58.031Z,18.02
2023-02-11T13:54:36.803Z,15.73
2023-02-11T13:57:26.443Z,18.70
2023-02-11T13:59:55.854Z,15.90
2023-02-11T14:02:45.141Z,14.25
2023-02-11T14:05:46.982Z,18.35
2023-02-11T14:08:39.486Z,19.52
2023-02-11T14:11:12.842Z,19.38
2023-02-11T14:14:16.461Z,17.60
2023-02-11T14:17:28.282Z,18.75
2023-02-11T14:19:56.854Z,18.48
2023-02-11T14:22:28.349Z,22.52
2023-02-11T14:24:59.896Z,22.02
2023-02-11T14:27:38.679Z,19.73
2023-02-11T14:30:28.788Z,19.70
2023-02-11T14:33:32.137Z,17.90
2023-02-11T14:36:09.870Z,18.90
2023-02-11T14:38:51.869Z,19.67
2023-02-11T14:41:25.762Z,18.00
2023-02-11T14:43:59.580Z,17.05
2023-02-11T14:46:32.843Z,19.13
2023-02-11T14:49:04.347Z,19.73
2023-02-11T14:51:36.268Z,17.45
2023-02-11T14:54:13.409Z,17.30
2023-02-11T14:56:42.433Z,18.17
2023-02-11T14:59:19.034Z,18.35
2023-02-11T15:01:51.743Z,17.30
2023-02-11T15:06:53.483Z,16.33
2023-02-11T15:09:27.953Z,18.25
2023-02-11T15:11:57.766Z,17.20
2023-02-11T15:14:29.323Z,15.30
2023-02-11T15:17:00.114Z,16.83
2023-02-11T15:19:34.522Z,14.18
2023-02-11T15:22:05.569Z,16.38
2023-02-11T15:24:36.018Z,15.82
2023-02-11T15:27:05.878Z,14.98
2023-02-11T15:29:39.622Z,17.90
2023-02-11T15:32:13.770Z,15.70
2023-02-11T15:34:42.247Z,16.67
2023-02-11T15:37:14.643Z,13.35
2023-02-11T15:39:43.770Z,17.50
2023-02-11T15:42:19.876Z,16.42
2023-02-11T15:44:56.335Z,16.48
2023-02-11T15:47:30.718Z,17.92
2023-02-11T15:49:59.290Z,17.25
2023-02-11T15:52:29.123Z,16.42
2023-02-11T15:55:01.763Z,16.45
2023-02-11T15:57:30.671Z,16.75
2023-02-11T16:00:04.413Z,17.63
2023-02-11T16:02:36.525Z,15.90
2023-02-11T16:05:07.031Z,15.52
2023-02-11T16:07:47.386Z,12.45
2023-02-11T16:10:24.942Z,14.35
2023-02-11T16:13:03.909Z,11.88
2023-02-11T16:15:49.407Z,15.98
2023-02-11T16:18:37.638Z,16.30
2023-02-11T16:21:08.761Z,15.60
2023-02-11T16:23:42.064Z,15.77
2023-02-11T16:26:21.754Z,13.63
2023-02-11T16:28:50.248Z,14.63
2023-02-11T16:31:20.124Z,16.45
2023-02-11T16:33:48.280Z,16.33
2023-02-11T16:36:18.276Z,17.75
2023-02-11T16:38:46.619Z,16.52
2023-02-11T16:41:14.741Z,15.52
2023-02-11T16:43:42.860Z,14.32
2023-02-11T16:46:15.726Z,14.32
2023-02-11T16:48:45.310Z,13.18
2023-02-11T16:51:13.659Z,15.02
2023-02-11T16:53:41.934Z,13.90
2023-02-11T16:56:16.741Z,16.63
2023-02-11T16:58:44.988Z,14.93
2023-02-11T17:01:14.279Z,13.80
2023-02-11T17:03:43.760Z,16.90
2023-02-11T17:06:14.643Z,14.02
2023-02-11T17:08:43.107Z,14.30
2023-02-11T17:11:11.262Z,14.00
2023-02-11T17:13:39.702Z,16.02
2023-02-11T17:16:14.995Z,14.60
2023-02-11T17:18:43.032Z,14.48
2023-02-11T17:21:11.053Z,15.50
2023-02-11T17:23:40.572Z,16.42
2023-02-11T17:26:09.310Z,15.52
2023-02-11T17:28:37.458Z,14.32
2023-02-11T17:31:09.646Z,14.70
2023-02-11T17:33:38.925Z,17.98
2023-02-11T17:36:08.830Z,16.17
2023-02-11T17:38:38.291Z,16.75
2023-02-11T17:41:07.826Z,18.75
2023-02-11T17:43:35.972Z,16.55
2023-02-11T17:46:08.577Z,15.35
2023-02-11T17:51:06.332Z,17.10
2023-02-11T17:53:34.476Z,14.48
2023-02-11T17:56:06.319Z,18.70
2023-02-11T17:58:35.816Z,20.17
2023-02-11T18:01:03.894Z,17.45
2023-02-11T18:03:33.134Z,18.42
2023-02-11T18:06:01.950Z,17.77
2023-02-11T18:08:30.075Z,19.75
2023-02-11T18:10:58.143Z,17.67
2023-02-11T18:13:26.280Z,18.42
2023-02-11T18:15:55.938Z,16.55
2023-02-11T18:18:24.080Z,19.00
2023-02-11T18:20:57.654Z,20.83
2023-02-11T18:23:25.888Z,20.10
2023-02-11T18:25:57.046Z,21.67
2023-02-11T18:28:25.294Z,19.42
2023-02-11T18:30:59.963Z,21.15
2023-02-11T18:33:29.019Z,18.65
2023-02-11T18:35:57.925Z,22.35
2023-02-11T18:38:26.385Z,21.15
2023-02-11T18:40:58.190Z,21.92
2023-02-11T18:43:26.395Z,25.10
2023-02-11T18:45:54.890Z,24.75
2023-02-11T18:48:26.698Z,23.58
2023-02-11T18:50:55.997Z,20.98
2023-02-11T18:53:25.299Z,26.48
2023-02-11T18:55:54.508Z,21.63
2023-02-11T18:58:22.830Z,20.92
2023-02-11T19:00:53.872Z,23.77
2023-02-11T19:03:22.224Z,24.33
2023-02-11T19:05:54.633Z,25.25
2023-02-11T19:08:22.845Z,26.90
2023-02-11T19:10:52.168Z,22.25
2023-02-11T19:13:23.077Z,24.67
2023-02-11T19:15:51.435Z,23.90
2023-02-11T19:18:22.223Z,20.08
2023-02-11T19:20:50.394Z,23.08
2023-02-11T19:23:19.820Z,21.52
2023-02-11T19:25:49.213Z,20.15
2023-02-11T19:28:17.411Z,22.17
2023-02-11T19:30:45.560Z,20.33
2023-02-11T19:33:13.668Z,22.17
2023-02-11T19:35:41.936Z,20.98
2023-02-11T19:38:10.220Z,21.85
2023-02-11T19:40:39.729Z,19.92
2023-02-11T19:43:07.856Z,19.65
2023-02-11T19:45:38.432Z,23.08
2023-02-11T19:48:06.658Z,22.42
2023-02-11T19:50:34.714Z,21.63
2023-02-11T19:53:03.252Z,22.85
2023-02-11T19:55:31.361Z,24.27
2023-02-11T19:58:00.903Z,25.35
2023-02-11T20:00:31.705Z,24.75
2023-02-11T20:02:59.826Z,26.95
2023-02-11T20:05:28.047Z,28.63
2023-02-11T20:07:56.135Z,27.08
2023-02-11T20:10:24.939Z,25.92
2023-02-11T20:12:53.171Z,27.60
2023-02-11T20:15:22.673Z,26.52
2023-02-11T20:17:50.753Z,26.15
2023-02-11T20:20:19.110Z,26.50
2023-02-11T20:22:47.134Z,27.33
2023-02-11T20:25:15.173Z,26.30
2023-02-11T20:27:43.214Z,22.33
2023-02-11T20:30:11.953Z,24.40
2023-02-11T20:32:41.442Z,25.27
2023-02-11T20:35:10.903Z,24.00
2023-02-11T20:37:42.226Z,29.75
2023-02-11T20:40:12.664Z,24.33
2023-02-11T20:42:40.685Z,26.95
2023-02-11T20:45:09.644Z,28.48
2023-02-11T20:47:38.591Z,26.58
2023-02-11T20:50:09.293Z,28.00
2023-02-11T20:52:37.907Z,27.55
2023-02-11T20:55:06.518Z,26.77
2023-02-11T20:57:35.158Z,27.60
2023-02-11T21:00:03.407Z,26.13
2023-02-11T21:02:31.502Z,28.17
2023-02-11T21:04:59.534Z,30.75
2023-02-11T21:07:29.775Z,29.77
2023-02-11T21:09:58.000Z,29.25
2023-02-11T21:12:29.114Z,27.95
2023-02-11T21:14:58.004Z,26.25
2023-02-11T21:17:26.596Z,26.80
2023-02-11T21:19:54.784Z,25.25
2023-02-11T21:22:22.820Z,23.92
2023-02-11T21:24:52.392Z,21.48
2023-02-11T21:27:20.659Z,24.25
2023-02-11T21:29:54.072Z,19.83
2023-02-11T21:32:22.913Z,24.17
2023-02-11T21:34:51.209Z,25.55
2023-02-11T21:37:19.248Z,23.13
2023-02-11T21:39:47.717Z,24.67
2023-02-11T21:42:17.213Z,25.90
2023-02-11T21:44:45.289Z,26.20
2023-02-11T21:47:15.400Z,23.00
2023-02-11T21:49:43.701Z,23.42
2023-02-11T21:52:11.802Z,24.70
2023-02-11T21:54:39.917Z,22.50
2023-02-11T21:57:07.940Z,23.20
2023-02-11T21:59:40.436Z,22.92
2023-02-11T22:02:10.006Z,24.73
2023-02-11T22:04:38.184Z,21.92
2023-02-11T22:07:06.216Z,22.13
2023-02-11T22:09:34.268Z,21.38
2023-02-11T22:12:05.972Z,20.73
2023-02-11T22:14:34.089Z,23.15
2023-02-11T22:17:03.546Z,24.52
2023-02-11T22:19:32.679Z,24.13
2023-02-11T22:22:00.883Z,24.55
2023-02-11T22:24:29.010Z,22.73
2023-02-11T22:26:57.054Z,20.25
2023-02-11T22:29:28.042Z,21.00
2023-02-11T22:31:58.695Z,21.73
2023-02-11T22:34:28.963Z,22.20
2023-02-11T22:36:57.080Z,20.02
2023-02-11T22:39:25.270Z,20.40
2023-02-11T22:41:54.473Z,21.45
2023-02-11T22:44:25.480Z,20.83
2023-02-11T22:46:54.304Z,23.02
2023-02-11T22:49:23.361Z,20.73
2023-02-11T22:51:52.809Z,20.90
2023-02-11T22:54:23.852Z,19.90
2023-02-11T22:56:53.351Z,20.23
2023-02-11T22:59:22.024Z,23.27
2023-02-11T23:01:50.731Z,21.92
2023-02-11T23:04:20.922Z,27.13
2023-02-11T23:06:50.059Z,20.92
2023-02-11T23:09:19.447Z,19.52
2023-02-11T23:11:48.630Z,20.10
2023-02-11T23:14:16.700Z,21.40
2023-02-11T23:16:50.582Z,22.10
2023-02-11T23:19:19.860Z,21.80
2023-02-11T23:21:51.374Z,24.02
2023-02-11T23:24:20.961Z,20.17
2023-02-11T23:26:49.047Z,23.27
2023-02-11T23:29:19.328Z,20.45
2023-02-11T23:31:47.542Z,25.00
2023-02-11T23:34:17.293Z,22.95
2023-02-11T23:36:45.741Z,24.30
2023-02-11T23:39:17.000Z,22.88
2023-02-11T23:41:47.376Z,24.83
2023-02-11T23:44:15.631Z,23.42
2023-02-11T23:46:43.682Z,23.02
2023-02-11T23:49:11.802Z,24.98
2023-02-11T23:51:42.078Z,21.60
2023-02-11T23:54:12.927Z,22.73
2023-02-11T23:56:42.337Z,23.67
2023-02-11T23:59:11.863Z,23.70
